Airfield :
LOGIN :

Register | Disclaimer

   EN    FR    IT 

 










Legend :    VFR   Marginal VFR   IFR   Intensive IFR   Very Intensive IFR
Visi :
Ceiling :
>= 8 km
>= 3000ft
5 to 8 km
1000 to 3000 ft
1500m to 5 km
500 to 1000 ft
800 to 1500m
200 to 500 ft
< 800m
< 200 ft
Symbols :   Thunderstorms  Fog  Heavy snow  Heavy precipitations  Wind > 20 kt
SIGMETs :     Misc.  Thunderstorms  Icing  Turbulence  Mountain Waves  Volcanic Ashes







- Airport Elevation : 646 ft
- IATA code : VNO


EYVI - Vilnius int.

CURRENT METAR :
  • 212320Z 17003KT 3900 SN NSC M05/M06 Q1017 R19/5/0195 TEMPO 1500 SN BR BKN005

EXPIRED METARs :
  • 212250Z 17003KT 3500 SN BKN008 OVC063 M05/M05 Q1017 R19/5/0195 TEMPO 1500 SN BR
  • 212220Z 18003KT 3600 SN OVC007 M05/M05 Q1017 R19/5/0195 TEMPO 1500 SN BR
  • 212154Z 18004KT 2600 SN OVC005 M04/M05 Q1017 R19/5/0195 TEMPO 1500 SN BR
  • 212150Z 18004KT 3500 -SN BR OVC004 M04/M05 Q1017 R19/5/0195 TEMPO 1500 SN BR
  • 212120Z 17003KT 5000 -SN BR OVC004 M04/M05 Q1017 R19/5/0195 TEMPO 3000 SN BR
  • 212050Z VRB02KT 8000 BKN004 M04/M05 Q1017 R19/5/0195 TEMPO 3000 SN BR

TAF TAF EYVI
Valid from the 22 at 00:00 until the 23 at 00:00 UTC


212304Z 2200/2224 VRB05KT 3000 BR BKN005
TEMPO 2200/2206 0800 SN FZFG OVC002
BECMG 2208/2209 7000
BECMG 2212/2214 BKN010
TEMPO 2218/2224 SCT020
No reported NOTAMs for that airfield.



MET'MAP, your aeronautical weather chart ! - Copyright ORBIFLY December 2007 - Disclaimer

ORBIFLY MET'MAP TEAM :

Programming & Development : Alexandra Zaïnal
Concept & Development : Baudouin d'Aumeries
Co-Development & Prog : Marc-Olivier Méhu
Technical & hardware support : Manuel Goepfert

Contact : metmap@orbifly.com




SOURCES & CREDITS :

   NOAA